Time;durP1;ratioP1;P1;durP2;ratioP2;P2;SDS_P1;SDS_P2;PMS_P1;PMS_P2;Temp;Humidity;BMP_temperature;BMP_pressure;BME280_temperature;BME280_humidity;BME280_pressure;Samples;Min_cycle;Max_cycle;Signal;HPM_P1;HPM_P2
2022/08/10 00:01:52;;;;;;;9.90;6.22;;;;;;;16.10;64.50;101339.57;2193107;80;29833;-64
2022/08/10 00:04:53;;;;;;;8.73;4.97;;;;;;;16.10;64.76;101333.27;2165822;80;31451;-64
2022/08/10 00:07:54;;;;;;;7.78;5.17;;;;;;;16.10;64.80;101332.81;2141101;80;33376;-64
2022/08/10 00:10:56;;;;;;;15.32;5.87;;;;;;;16.10;64.88;101330.57;2138065;82;30157;-65
2022/08/10 00:13:58;;;;;;;9.50;6.05;;;;;;;16.10;65.05;101334.63;2108661;82;27714;-64
2022/08/10 00:16:59;;;;;;;12.05;5.70;;;;;;;15.99;65.03;101313.60;2167297;80;29916;-64
2022/08/10 00:20:01;;;;;;;8.98;5.60;;;;;;;16.07;65.12;101326.69;2130376;80;30746;-64
2022/08/10 00:23:02;;;;;;;8.05;5.58;;;;;;;16.04;65.15;101330.45;2113250;83;33648;-64
2022/08/10 00:26:05;;;;;;;10.25;6.03;;;;;;;16.02;65.80;101332.85;2163966;80;29428;-64
2022/08/10 00:29:07;;;;;;;11.57;5.30;;;;;;;15.84;65.43;101309.91;2149335;80;28072;-64
2022/08/10 00:32:08;;;;;;;8.45;5.30;;;;;;;15.84;65.43;101309.91;2158098;80;29221;-64
2022/08/10 00:35:09;;;;;;;8.30;5.33;;;;;;;15.97;65.42;101328.17;2140649;79;31478;-65
2022/08/10 00:38:10;;;;;;;10.15;5.80;;;;;;;15.97;65.43;101334.93;2155369;82;34165;-64
2022/08/10 00:41:11;;;;;;;8.78;5.50;;;;;;;15.95;65.61;101328.27;2155035;82;29079;-64
2022/08/10 00:44:13;;;;;;;10.25;5.83;;;;;;;15.93;65.64;101332.88;2140512;80;27721;-65
2022/08/10 00:47:14;;;;;;;11.93;5.83;;;;;;;15.91;65.82;101323.98;2173278;79;28675;-65
2022/08/10 00:50:19;;;;;;;5.70;5.00;;;;;;;15.91;65.82;101323.98;2171279;80;32093;-64
2022/08/10 00:53:20;;;;;;;10.32;6.17;;;;;;;15.90;65.76;101324.94;2191277;80;33359;-63
2022/08/10 00:56:22;;;;;;;7.42;6.00;;;;;;;15.88;66.08;101327.74;2131944;81;29175;-64
2022/08/10 00:59:23;;;;;;;7.47;5.67;;;;;;;15.71;66.26;101300.75;2110936;82;27702;-64
2022/08/10 01:02:27;;;;;;;9.63;5.60;;;;;;;15.71;66.26;101300.75;2093139;82;29385;-64
2022/08/10 01:05:28;;;;;;;10.63;6.92;;;;;;;15.79;66.25;101322.34;2114920;82;31051;-64
2022/08/10 01:09:03;;;;;;;10.65;5.80;;;;;;;15.73;66.30;101326.72;2105500;82;33353;-65
2022/08/10 01:12:16;;;;;;;7.45;5.45;;;;;;;15.68;66.48;101323.38;2114392;82;29096;-64
2022/08/10 01:15:32;;;;;;;7.70;5.67;;;;;;;15.53;66.79;101328.27;2139762;82;27772;-63
2022/08/10 01:19:21;;;;;;;9.93;5.35;;;;;;;15.53;66.79;101328.27;2156366;81;29891;-64
2022/08/10 01:22:44;;;;;;;8.58;5.47;;;;;;;15.45;66.67;101330.03;2149407;79;31914;-64
2022/08/10 01:26:23;;;;;;;7.90;5.67;;;;;;;15.36;66.80;101329.19;2120699;80;33497;-64
2022/08/10 01:29:36;;;;;;;7.45;6.20;;;;;;;15.28;66.82;101332.30;2167792;80;30253;-64
2022/08/10 01:32:48;;;;;;;7.75;6.10;;;;;;;15.20;66.86;101334.05;2113754;83;28815;-65
2022/08/10 01:36:01;;;;;;;7.03;5.85;;;;;;;15.13;66.91;101324.52;2104675;83;28705;-64
2022/08/10 01:39:03;;;;;;;9.50;5.83;;;;;;;15.06;67.14;101327.16;2108989;83;31502;-65
2022/08/10 01:42:06;;;;;;;8.35;6.25;;;;;;;14.99;67.26;101326.58;2133614;83;33775;-65
2022/08/10 01:45:09;;;;;;;7.50;6.37;;;;;;;14.92;67.35;101330.07;2116802;83;29074;-65
2022/08/10 01:48:27;;;;;;;7.05;5.70;;;;;;;14.84;67.50;101326.42;2114747;82;28099;-65
2022/08/10 01:51:41;;;;;;;8.68;6.42;;;;;;;14.78;67.60;101331.25;2159185;80;28444;-64
2022/08/10 01:54:44;;;;;;;7.53;6.20;;;;;;;14.70;67.79;101332.99;2167460;80;31897;-64
2022/08/10 01:57:46;;;;;;;9.08;6.58;;;;;;;14.61;67.69;101330.73;2131089;80;32880;-66
2022/08/10 02:00:50;;;;;;;7.50;6.05;;;;;;;14.55;67.80;101330.09;2103725;82;29613;-64
2022/08/10 02:03:55;;;;;;;8.50;6.10;;;;;;;14.49;68.04;101338.47;2104653;81;28332;-65
2022/08/10 02:06:57;;;;;;;;;;;;;;;14.45;68.10;101331.50;2155091;82;28663;-64
2022/08/10 02:10:03;;;;;;;10.28;6.05;;;;;;;14.39;68.44;101334.03;2150388;81;31056;-63
2022/08/10 02:13:06;;;;;;;10.78;6.62;;;;;;;14.33;68.46;101335.67;2116862;82;32915;-64
2022/08/10 02:16:09;;;;;;;10.15;6.53;;;;;;;14.28;68.60;101326.92;2139884;82;28481;-64
2022/08/10 02:19:15;;;;;;;9.15;6.58;;;;;;;14.24;68.76;101326.67;2164718;81;27794;-64
2022/08/10 02:22:18;;;;;;;8.83;6.40;;;;;;;14.19;68.87;101322.86;2154459;81;28852;-64
2022/08/10 02:25:20;;;;;;;10.38;6.00;;;;;;;14.15;69.00;101327.12;2164049;81;31948;-64
2022/08/10 02:28:24;;;;;;;8.20;5.87;;;;;;;14.08;69.05;101327.41;2159998;80;32836;-64
2022/08/10 02:31:27;;;;;;;8.53;5.53;;;;;;;13.86;69.16;101301.97;2169639;80;29218;-65
2022/08/10 02:34:29;;;;;;;8.90;6.40;;;;;;;13.97;69.29;101334.69;2137156;81;27789;-64
2022/08/10 02:37:30;;;;;;;8.28;6.15;;;;;;;13.93;69.29;101330.83;2142254;81;28900;-64
2022/08/10 02:40:37;;;;;;;9.58;5.90;;;;;;;13.90;69.53;101336.39;2148316;81;31048;-64
2022/08/10 02:43:46;;;;;;;7.35;6.10;;;;;;;13.86;69.62;101338.82;2125133;82;32879;-65
2022/08/10 02:47:03;;;;;;;10.58;6.33;;;;;;;13.81;69.75;101336.35;2145120;82;29826;-64
2022/08/10 02:50:15;;;;;;;9.28;7.08;;;;;;;13.75;69.88;101334.78;2150583;82;27731;-66
2022/08/10 02:53:43;;;;;;;6.55;5.85;;;;;;;13.70;70.13;101330.11;2087222;82;29102;-66
2022/08/10 02:57:27;;;;;;;9.00;6.78;;;;;;;13.67;70.22;101329.76;2003304;86;31080;-64
2022/08/10 03:00:29;;;;;;;9.60;6.33;;;;;;;13.61;70.34;101329.17;1990108;86;32582;-65
2022/08/10 03:03:36;;;;;;;9.83;6.25;;;;;;;13.55;70.52;101328.13;2042659;85;28949;-64
2022/08/10 03:06:41;;;;;;;9.90;6.35;;;;;;;13.51;70.45;101328.25;1975517;87;28033;-65
2022/08/10 03:09:42;;;;;;;8.08;6.50;;;;;;;13.46;70.57;101331.62;2008494;85;29001;-65
2022/08/10 03:12:52;;;;;;;7.37;6.47;;;;;;;13.42;70.53;101329.14;2016492;86;31409;-66
2022/08/10 03:15:55;;;;;;;11.30;6.53;;;;;;;13.38;70.58;101329.73;1991012;87;32967;-67
2022/08/10 03:18:59;;;;;;;7.65;6.00;;;;;;;13.35;70.64;101336.59;2008015;86;29204;-65
2022/08/10 03:22:03;;;;;;;9.80;6.33;;;;;;;13.33;70.65;101343.86;2004036;87;27859;-65
2022/08/10 03:25:06;;;;;;;11.60;6.72;;;;;;;13.29;70.73;101345.81;1997986;87;28989;-65
2022/08/10 03:28:08;;;;;;;11.03;7.00;;;;;;;13.28;71.00;101344.06;1999123;88;31915;-65
2022/08/10 03:31:10;;;;;;;11.18;7.03;;;;;;;13.25;71.06;101337.92;2006330;88;32913;-64
2022/08/10 03:34:13;;;;;;;9.58;6.12;;;;;;;13.23;71.36;101336.66;2089648;82;29541;-64
2022/08/10 03:37:14;;;;;;;15.15;6.85;;;;;;;13.20;71.38;101340.37;2125153;82;28217;-65
2022/08/10 03:40:16;;;;;;;10.88;6.25;;;;;;;13.20;71.26;101342.16;2192437;81;28751;-66
2022/08/10 03:43:19;;;;;;;8.05;6.30;;;;;;;13.18;71.34;101337.32;2185470;80;31892;-65
2022/08/10 03:46:23;;;;;;;7.03;6.08;;;;;;;13.18;71.37;101341.36;2149417;80;33025;-65
2022/08/10 03:49:27;;;;;;;13.87;7.13;;;;;;;13.20;71.42;101348.89;2181570;80;29430;-66
2022/08/10 03:52:28;;;;;;;8.45;6.33;;;;;;;13.19;71.60;101342.66;2154052;81;27971;-65
2022/08/10 03:55:30;;;;;;;11.40;6.87;;;;;;;13.21;71.73;101350.64;2136294;82;29070;-66
2022/08/10 03:58:32;;;;;;;8.00;5.60;;;;;;;13.22;71.75;101354.63;2143767;80;32579;-66
2022/08/10 04:01:33;;;;;;;6.90;6.15;;;;;;;13.25;71.68;101350.92;2156962;80;34294;-65
2022/08/10 04:04:35;;;;;;;9.55;6.12;;;;;;;13.29;71.75;101353.89;2154921;82;29072;-65
2022/08/10 04:07:36;;;;;;;6.53;5.75;;;;;;;13.34;71.75;101359.06;2122816;82;27750;-65
2022/08/10 04:10:37;;;;;;;8.10;6.28;;;;;;;13.37;71.75;101354.41;2145721;81;29837;-65
2022/08/10 04:13:39;;;;;;;7.15;6.00;;;;;;;13.42;71.87;101362.79;2173156;80;32203;-65
2022/08/10 04:16:40;;;;;;;9.78;6.33;;;;;;;13.46;71.85;101358.54;2154715;80;33618;-65
2022/08/10 04:19:46;;;;;;;8.95;6.37;;;;;;;13.52;71.94;101354.23;2157537;79;29429;-65
2022/08/10 04:22:51;;;;;;;10.50;6.10;;;;;;;13.59;72.10;101360.22;2138689;82;27633;-65
2022/08/10 04:25:52;;;;;;;7.03;6.00;;;;;;;13.66;72.14;101352.73;2160521;80;29052;-65
2022/08/10 04:28:54;;;;;;;7.25;6.42;;;;;;;13.73;72.23;101351.97;2165904;80;31535;-65
2022/08/10 04:31:55;;;;;;;9.75;6.80;;;;;;;13.78;72.24;101348.12;2130361;81;33027;-64
2022/08/10 04:34:57;;;;;;;8.53;6.60;;;;;;;13.88;72.48;101349.05;2187501;81;29036;-64
2022/08/10 04:38:01;;;;;;;7.15;6.40;;;;;;;13.97;72.46;101360.28;2161402;81;27706;-63
2022/08/10 04:41:03;;;;;;;11.88;6.87;;;;;;;14.08;72.42;101361.09;2162217;80;29520;-64
2022/08/10 04:44:04;;;;;;;7.67;6.60;;;;;;;14.21;72.21;101368.62;2160329;80;31417;-64
2022/08/10 04:47:07;;;;;;;18.60;6.55;;;;;;;14.33;72.22;101365.78;2182082;81;33020;-64
2022/08/10 04:50:09;;;;;;;13.68;6.90;;;;;;;14.44;71.98;101367.02;2159545;80;29759;-64
2022/08/10 04:53:11;;;;;;;17.12;7.60;;;;;;;14.57;71.95;101365.95;2157351;81;27753;-63
2022/08/10 04:56:12;;;;;;;11.33;6.90;;;;;;;14.73;71.69;101369.27;2100941;81;29220;-63
2022/08/10 04:59:14;;;;;;;15.53;6.95;;;;;;;14.89;71.48;101363.98;2157694;79;30786;-64
2022/08/10 05:02:15;;;;;;;13.85;7.12;;;;;;;15.15;71.49;101369.36;2146021;82;34076;-64
2022/08/10 05:05:17;;;;;;;11.40;5.92;;;;;;;16.42;70.98;101366.22;2129011;82;29071;-64
2022/08/10 05:08:19;;;;;;;9.55;5.85;;;;;;;16.42;70.98;101366.22;2142784;82;28331;-65
2022/08/10 05:11:22;;;;;;;9.78;5.80;;;;;;;16.99;70.05;101373.27;2152084;80;27636;-64
2022/08/10 05:14:23;;;;;;;8.70;5.87;;;;;;;17.52;69.70;101381.44;2157560;80;31068;-65
2022/08/10 05:17:24;;;;;;;5.97;4.97;;;;;;;17.93;68.53;101376.59;2109012;82;34215;-65
2022/08/10 05:20:25;;;;;;;7.70;5.12;;;;;;;18.27;68.05;101379.03;2125697;80;29410;-64
2022/08/10 05:23:27;;;;;;;8.58;5.85;;;;;;;18.61;67.52;101380.89;2116503;82;27812;-64
2022/08/10 05:26:28;;;;;;;10.40;5.03;;;;;;;18.91;67.00;101382.02;2160180;80;28627;-62
2022/08/10 05:29:29;;;;;;;5.85;4.50;;;;;;;19.19;66.21;101382.02;2135386;81;30882;-64
2022/08/10 05:32:32;;;;;;;8.38;4.90;;;;;;;19.33;64.64;101383.28;2178194;80;32199;-64
2022/08/10 05:35:34;;;;;;;12.23;5.67;;;;;;;19.46;63.68;101386.02;2156286;81;29034;-64
2022/08/10 05:38:36;;;;;;;11.68;5.03;;;;;;;19.57;63.62;101381.20;2139982;81;27809;-64
2022/08/10 05:41:37;;;;;;;7.92;5.33;;;;;;;19.66;62.94;101387.33;2131907;81;29136;-64
2022/08/10 05:44:39;;;;;;;12.23;5.22;;;;;;;19.80;62.85;101383.64;2140558;80;32166;-64
2022/08/10 05:47:40;;;;;;;10.95;5.45;;;;;;;19.95;62.46;101394.42;2109691;82;34117;-64
2022/08/10 05:50:42;;;;;;;9.25;4.62;;;;;;;20.16;62.21;101390.63;2147125;80;29499;-64
2022/08/10 05:53:44;;;;;;;10.03;5.42;;;;;;;20.38;61.68;101389.06;2140803;82;27767;-64
2022/08/10 05:56:47;;;;;;;11.65;5.15;;;;;;;20.55;60.90;101393.23;2151693;82;29059;-64
2022/08/10 06:00:09;;;;;;;7.83;4.83;;;;;;;20.70;60.28;101393.45;2132042;80;31032;-64
2022/08/10 06:03:11;;;;;;;8.90;4.25;;;;;;;20.89;60.03;101386.65;2156633;81;33002;-64
2022/08/10 06:06:14;;;;;;;8.28;4.67;;;;;;;21.10;59.64;101383.65;2162472;81;28915;-64
2022/08/10 06:09:15;;;;;;;7.05;4.35;;;;;;;21.37;59.54;101390.66;2152199;79;27701;-63
2022/08/10 06:12:18;;;;;;;6.33;4.60;;;;;;;21.72;59.23;101391.64;2122051;80;29897;-63
2022/08/10 06:15:20;;;;;;;7.60;4.75;;;;;;;22.04;58.43;101394.11;2120254;81;31403;-64
2022/08/10 06:18:22;;;;;;;6.87;4.40;;;;;;;22.33;58.29;101389.53;2153707;80;33820;-64
2022/08/10 06:21:24;;;;;;;8.07;4.20;;;;;;;22.66;56.87;101383.66;2131889;80;29037;-64
2022/08/10 06:24:31;;;;;;;6.17;4.70;;;;;;;23.07;55.77;101386.09;2116034;83;27745;-65
2022/08/10 06:27:34;;;;;;;10.30;4.95;;;;;;;23.40;55.87;101377.88;2111519;82;28706;-64
2022/08/10 06:30:37;;;;;;;13.98;4.22;;;;;;;23.95;55.17;101387.18;2124600;81;31182;-64
2022/08/10 06:33:38;;;;;;;4.92;3.65;;;;;;;24.43;54.32;101389.25;2139846;80;34244;-67
2022/08/10 06:36:42;;;;;;;9.98;4.28;;;;;;;25.09;53.97;101381.91;2128609;81;29061;-63
2022/08/10 06:39:44;;;;;;;8.50;4.37;;;;;;;25.84;53.40;101386.19;2126532;82;27760;-64
2022/08/10 06:42:47;;;;;;;6.50;4.30;;;;;;;26.56;52.06;101384.18;2120555;82;28406;-63
2022/08/10 06:45:56;;;;;;;10.58;4.20;;;;;;;27.16;51.44;101382.75;2108399;83;31708;-63
2022/08/10 06:49:00;;;;;;;8.30;4.20;;;;;;;27.69;49.88;101386.95;2122633;82;32923;-65
2022/08/10 06:52:03;;;;;;;11.75;4.30;;;;;;;28.20;49.04;101385.68;2113190;82;33355;-64
2022/08/10 06:55:08;;;;;;;6.47;4.12;;;;;;;28.69;48.58;101381.34;2113416;83;27662;-64
2022/08/10 06:58:11;;;;;;;6.90;3.67;;;;;;;29.19;47.66;101377.62;2106458;82;28735;-64
2022/08/10 07:01:15;;;;;;;10.08;4.35;;;;;;;29.56;46.66;101379.50;2127892;82;32271;-63
2022/08/10 07:04:22;;;;;;;13.13;4.33;;;;;;;29.91;45.13;101383.41;2113988;82;33017;-64
2022/08/10 07:07:26;;;;;;;10.10;4.42;;;;;;;30.00;44.34;101382.35;2120321;83;29129;-64
2022/08/10 07:10:28;;;;;;;11.80;4.55;;;;;;;30.11;43.99;101376.96;2100851;82;27746;-64
2022/08/10 07:13:31;;;;;;;9.75;4.30;;;;;;;30.36;43.18;101377.70;2123797;82;29896;-66
2022/08/10 07:16:32;;;;;;;6.05;4.33;;;;;;;30.43;42.29;101380.10;2116738;83;31081;-66
2022/08/10 07:19:34;;;;;;;8.48;4.03;;;;;;;30.50;42.01;101377.97;2112418;83;34177;-66
2022/08/10 07:22:36;;;;;;;9.05;4.22;;;;;;;30.78;41.93;101378.88;2092353;83;29054;-66
2022/08/10 07:25:39;;;;;;;8.03;3.45;;;;;;;30.97;41.18;101379.75;2127099;83;27662;-67
2022/08/10 07:28:41;;;;;;;6.67;3.70;;;;;;;31.26;40.69;101382.33;2120371;82;28693;-68
2022/08/10 07:31:42;;;;;;;4.47;3.33;;;;;;;31.36;40.14;101377.88;2121666;82;31417;-66
2022/08/10 07:34:46;;;;;;;9.53;4.03;;;;;;;31.49;38.74;101386.43;2113632;82;34259;-66
2022/08/10 07:37:48;;;;;;;;;;;;;;;31.43;38.62;101385.79;2083998;83;29911;-67
2022/08/10 07:40:52;;;;;;;6.30;3.77;;;;;;;31.50;38.32;101386.77;2094058;82;27767;-66
2022/08/10 07:43:58;;;;;;;5.83;3.42;;;;;;;31.58;38.54;101387.20;2115248;82;29855;-66
2022/08/10 07:47:03;;;;;;;5.97;3.72;;;;;;;31.81;38.07;101387.67;2101704;82;32087;-68
2022/08/10 07:50:08;;;;;;;11.25;4.10;;;;;;;31.93;37.21;101380.62;2101045;83;34207;-67
2022/08/10 07:53:15;;;;;;;6.22;3.55;;;;;;;31.79;36.97;101382.84;2135404;82;29501;-66
2022/08/10 07:56:18;;;;;;;6.37;3.77;;;;;;;31.81;36.67;101383.52;2122850;83;27794;-68
2022/08/10 07:59:33;;;;;;;5.60;3.43;;;;;;;31.73;36.26;101375.31;2116968;81;28717;-68
2022/08/10 08:02:39;;;;;;;5.62;3.77;;;;;;;31.52;36.54;101379.10;2086351;82;32238;-66
2022/08/10 08:05:41;;;;;;;7.97;3.55;;;;;;;31.46;35.62;101377.62;2141365;81;33838;-68
2022/08/10 08:08:44;;;;;;;6.60;3.67;;;;;;;31.24;36.00;101376.11;2106434;81;29388;-67
2022/08/10 08:11:46;;;;;;;6.53;3.20;;;;;;;31.34;35.76;101376.70;2115627;82;27895;-68
2022/08/10 08:14:50;;;;;;;4.75;3.33;;;;;;;31.49;35.95;101380.02;2102875;82;29080;-68
2022/08/10 08:17:53;;;;;;;4.57;3.20;;;;;;;31.56;35.39;101379.61;2140268;82;31025;-67
2022/08/10 08:20:56;;;;;;;6.57;3.30;;;;;;;31.39;35.61;101378.89;2096671;83;33160;-74
2022/08/10 08:23:58;;;;;;;6.15;3.05;;;;;;;31.17;35.10;101372.36;2106205;82;30186;-68
2022/08/10 08:27:02;;;;;;;6.78;2.98;;;;;;;31.18;35.34;101373.58;2104918;82;28307;-69
2022/08/10 08:30:07;;;;;;;5.05;2.80;;;;;;;31.01;33.64;101371.95;2115764;82;28816;-70
2022/08/10 08:33:11;;;;;;;5.15;2.87;;;;;;;30.68;34.39;101368.05;2113357;82;30800;-75
2022/08/10 08:36:16;;;;;;;4.80;2.98;;;;;;;30.46;34.39;101361.73;2169180;80;33850;-76
2022/08/10 08:39:18;;;;;;;5.30;3.65;;;;;;;30.60;35.33;101364.28;2137481;80;29869;-75
2022/08/10 08:42:30;;;;;;;5.75;3.20;;;;;;;30.86;35.03;101363.05;2102898;82;27811;-69
2022/08/10 08:46:03;;;;;;;7.33;2.60;;;;;;;30.98;34.43;101360.72;2140423;81;29104;-68
2022/08/10 08:49:28;;;;;;;3.98;2.87;;;;;;;31.01;34.23;101368.66;2117730;82;31123;-68
2022/08/10 08:53:02;;;;;;;8.93;3.10;;;;;;;30.63;33.11;101364.97;2111241;81;33699;-70
2022/08/10 08:56:47;;;;;;;6.30;2.80;;;;;;;30.21;33.88;101359.63;2161035;81;29948;-68
2022/08/10 09:00:10;;;;;;;4.00;2.75;;;;;;;30.05;33.64;101355.05;2140644;81;28719;-66
2022/08/10 09:03:44;;;;;;;4.60;2.40;;;;;;;29.99;34.24;101364.05;2119282;82;28677;-69
2022/08/10 09:07:41;;;;;;;6.10;2.70;;;;;;;29.82;33.12;101354.94;2094547;82;31076;-69
2022/08/10 09:11:06;;;;;;;8.78;2.37;;;;;;;29.36;31.70;101360.58;2131250;80;33412;-66
2022/08/10 09:14:50;;;;;;;3.83;2.98;;;;;;;28.65;33.10;101351.34;2097904;82;29897;-67
2022/08/10 09:18:26;;;;;;;5.15;2.00;;;;;;;28.55;33.91;101351.14;2104541;82;28196;-68
2022/08/10 09:21:50;;;;;;;3.35;2.40;;;;;;;28.30;33.72;101346.44;2102818;82;28714;-68
2022/08/10 09:25:17;;;;;;;2.67;2.08;;;;;;;28.10;34.02;101345.86;2094280;81;31090;-67
2022/08/10 09:28:25;;;;;;;;;;;;;;;28.13;34.22;101345.53;2100956;82;33079;-64
2022/08/10 09:31:33;;;;;;;4.62;2.37;;;;;;;28.12;34.73;101348.47;2116903;82;30510;-67
2022/08/10 09:34:51;;;;;;;7.35;2.92;;;;;;;28.22;35.35;101348.30;2137742;81;27838;-67
2022/08/10 09:38:04;;;;;;;3.05;2.75;;;;;;;28.32;34.86;101349.89;2145632;80;29973;-69
2022/08/10 09:41:17;;;;;;;2.50;2.30;;;;;;;28.37;34.97;101345.28;2151145;81;32278;-67
2022/08/10 09:44:45;;;;;;;2.55;2.27;;;;;;;28.37;34.66;101342.52;2158135;80;33508;-66
2022/08/10 09:48:15;;;;;;;7.85;3.02;;;;;;;28.34;35.03;101340.09;2134758;80;30378;-65
2022/08/10 09:51:41;;;;;;;6.37;2.40;;;;;;;28.09;34.06;101348.77;2151641;81;27698;-67
2022/08/10 09:55:07;;;;;;;5.60;2.60;;;;;;;27.74;34.56;101343.25;2112059;80;28427;-69
2022/08/10 09:58:35;;;;;;;4.53;2.55;;;;;;;27.50;34.89;101338.47;2113089;82;31458;-67
2022/08/10 10:01:54;;;;;;;10.18;3.42;;;;;;;27.30;35.42;101334.02;2112231;82;34185;-69
2022/08/10 10:05:28;;;;;;;4.10;2.50;;;;;;;27.18;35.97;101324.31;2119407;82;29601;-66
2022/08/10 10:08:54;;;;;;;6.27;3.40;;;;;;;27.24;35.80;101322.80;2118793;82;27723;-67
2022/08/10 10:12:37;;;;;;;3.85;2.20;;;;;;;27.11;35.42;101326.84;2122803;81;53470;-68
2022/08/10 10:16:13;;;;;;;3.47;2.60;;;;;;;27.02;36.15;101325.55;2104939;82;32275;-65
2022/08/10 10:19:43;;;;;;;2.77;2.27;;;;;;;26.98;35.84;101325.88;2110588;83;34174;-68
2022/08/10 10:23:02;;;;;;;3.40;2.60;;;;;;;26.99;35.47;101328.09;2099583;82;29478;-70
2022/08/10 10:26:41;;;;;;;4.20;2.20;;;;;;;26.88;35.32;101320.10;2110353;81;28498;-66
2022/08/10 10:30:05;;;;;;;3.70;2.40;;;;;;;26.89;35.49;101312.20;2102921;83;28833;-65
2022/08/10 10:33:13;;;;;;;3.60;2.30;;;;;;;26.86;35.14;101309.28;2100732;83;31172;-66
2022/08/10 10:36:15;;;;;;;3.52;2.27;;;;;;;26.84;35.43;101307.19;2102112;83;33010;-66
2022/08/10 10:39:20;;;;;;;2.85;2.12;;;;;;;26.87;35.07;101308.25;2105639;82;29049;-66
2022/08/10 10:43:03;;;;;;;3.95;2.17;;;;;;;26.87;35.03;101300.50;2112526;82;27656;-66
2022/08/10 10:46:28;;;;;;;2.95;2.12;;;;;;;26.94;35.16;101301.08;2136307;81;28794;-66
2022/08/10 10:49:55;;;;;;;2.33;2.12;;;;;;;26.90;35.10;101299.66;2132219;81;31484;-67
2022/08/10 10:53:13;;;;;;;4.30;2.10;;;;;;;26.90;35.05;101289.19;2149545;81;33394;-66
2022/08/10 10:56:31;;;;;;;2.33;2.10;;;;;;;26.91;35.14;101290.91;2140061;81;29457;-64
2022/08/10 11:00:03;;;;;;;2.65;2.40;;;;;;;26.89;35.04;101299.30;2138264;81;27818;-66
2022/08/10 11:03:30;;;;;;;8.75;2.33;;;;;;;26.89;35.02;101294.34;2107364;82;29942;-68
2022/08/10 11:07:04;;;;;;;2.10;1.90;;;;;;;26.89;34.01;101298.45;2098029;82;31820;-67
2022/08/10 11:10:20;;;;;;;3.52;2.35;;;;;;;26.89;34.75;101286.94;2069574;84;34348;-68
2022/08/10 11:13:51;;;;;;;6.40;2.37;;;;;;;27.01;35.27;101302.67;2086293;83;29796;-66
2022/08/10 11:17:12;;;;;;;3.80;2.20;;;;;;;27.04;35.09;101290.51;2085499;83;27681;-67
2022/08/10 11:20:39;;;;;;;2.42;2.10;;;;;;;27.13;35.58;101289.53;2086502;83;28671;-65
2022/08/10 11:24:08;;;;;;;3.75;2.10;;;;;;;27.20;34.83;101286.50;2082589;83;31621;-65
2022/08/10 11:27:24;;;;;;;3.15;2.12;;;;;;;27.12;34.63;101283.67;2040571;84;33826;-67
2022/08/10 11:30:51;;;;;;;4.97;2.30;;;;;;;26.96;34.40;101277.56;2076833;83;29173;-65
2022/08/10 11:34:14;;;;;;;4.75;2.20;;;;;;;26.92;34.89;101278.38;2053707;86;27872;-67
2022/08/10 11:37:39;;;;;;;2.85;2.33;;;;;;;26.92;34.75;101280.27;2064578;85;30039;-64
2022/08/10 11:40:51;;;;;;;3.83;2.35;;;;;;;26.89;35.39;101283.34;2093622;84;31069;-65
2022/08/10 11:44:10;;;;;;;6.40;2.42;;;;;;;26.89;35.35;101286.09;2021583;86;34193;-65
2022/08/10 11:47:24;;;;;;;6.28;2.42;;;;;;;26.72;34.39;101284.55;2044370;86;29631;-67
2022/08/10 11:50:30;;;;;;;2.85;2.17;;;;;;;26.62;34.29;101289.27;2073652;85;27608;-72
2022/08/10 11:53:37;;;;;;;3.27;2.20;;;;;;;26.48;34.84;101269.54;2066497;85;29138;-67
2022/08/10 11:56:44;;;;;;;2.45;2.15;;;;;;;26.48;34.72;101264.05;2064022;85;31294;-67
2022/08/10 11:59:58;;;;;;;4.08;2.02;;;;;;;26.53;34.50;101271.84;2045687;86;34958;-67
2022/08/10 12:03:02;;;;;;;2.60;2.33;;;;;;;26.46;34.13;101261.11;2042881;85;30246;-69
2022/08/10 12:06:12;;;;;;;3.15;2.10;;;;;;;26.44;34.62;101261.28;2052229;85;27891;-66
2022/08/10 12:09:13;;;;;;;4.40;2.12;;;;;;;26.46;34.45;101256.99;2073180;85;29626;-66
2022/08/10 12:12:16;;;;;;;3.87;2.12;;;;;;;26.43;34.03;101260.92;2083347;84;31065;-66
2022/08/10 12:15:54;;;;;;;4.87;2.92;;;;;;;26.36;34.28;101259.81;2077169;85;34146;-65
2022/08/10 12:19:31;;;;;;;2.60;2.40;;;;;;;26.26;35.06;101251.64;2009537;86;29267;-65
2022/08/10 12:22:44;;;;;;;3.62;2.55;;;;;;;26.27;34.95;101259.39;2121267;83;27736;-69
2022/08/10 12:26:23;;;;;;;5.33;2.10;;;;;;;26.27;35.22;101255.27;2108852;82;29941;-67
2022/08/10 12:29:39;;;;;;;5.15;4.30;;;;;;;26.26;35.08;101250.80;2123681;81;31478;-66
2022/08/10 12:32:54;;;;;;;8.30;2.72;;;;;;;26.28;35.17;101246.86;2147106;81;34240;-66
2022/08/10 12:36:09;;;;;;;5.58;2.87;;;;;;;26.32;35.09;101243.28;2121343;82;29416;-62
2022/08/10 12:39:21;;;;;;;2.45;2.00;;;;;;;26.34;35.47;101237.13;2127713;82;27698;-62
2022/08/10 12:42:36;;;;;;;3.67;2.87;;;;;;;26.40;35.22;101232.38;2180115;80;28671;-63
2022/08/10 12:45:58;;;;;;;4.20;2.15;;;;;;;26.43;35.19;101237.57;2172980;79;30258;-64
2022/08/10 12:49:13;;;;;;;2.87;1.90;;;;;;;26.41;34.46;101239.61;2122874;81;33369;-63
2022/08/10 12:52:32;;;;;;;2.65;2.08;;;;;;;26.43;34.82;101229.33;2107663;83;29462;-63
2022/08/10 12:55:37;;;;;;;4.33;2.30;;;;;;;26.46;34.93;101230.39;2119884;82;27544;-63
2022/08/10 12:58:40;;;;;;;3.35;2.08;;;;;;;26.50;34.88;101233.16;2093434;83;28802;-63
2022/08/10 13:01:45;;;;;;;4.47;2.60;;;;;;;26.46;34.54;101225.39;2108212;80;30783;-63
2022/08/10 13:04:50;;;;;;;2.85;2.10;;;;;;;26.32;34.31;101223.56;2194713;80;33062;-63
2022/08/10 13:11:24;;;;;;;7.30;2.15;;;;;;;26.01;34.56;101217.53;2141923;80;27641;-64
2022/08/10 13:14:36;;;;;;;3.85;2.20;;;;;;;25.87;34.41;101221.17;2149297;80;28533;-62
2022/08/10 13:17:38;;;;;;;4.45;2.00;;;;;;;25.78;34.13;101215.25;2179341;80;31726;-62
2022/08/10 13:20:40;;;;;;;1.82;1.52;;;;;;;25.79;34.48;101208.73;2115836;81;33002;-63
2022/08/10 13:24:08;;;;;;;3.20;1.95;;;;;;;25.83;34.06;101198.30;2166803;80;29045;-63
2022/08/10 13:27:13;;;;;;;4.87;2.30;;;;;;;25.89;34.72;101199.92;2136514;81;27777;-64
2022/08/10 13:30:15;;;;;;;2.62;2.20;;;;;;;25.96;34.45;101199.31;2181084;80;29490;-62
2022/08/10 13:33:17;;;;;;;4.83;1.80;;;;;;;26.01;34.23;101195.08;2148284;80;31907;-63
2022/08/10 13:36:27;;;;;;;3.15;2.27;;;;;;;26.11;34.69;101190.91;2183967;79;33356;-63
2022/08/10 13:39:36;;;;;;;3.47;2.10;;;;;;;26.18;34.63;101193.37;2162214;79;29451;-65
2022/08/10 13:42:40;;;;;;;3.72;2.00;;;;;;;26.22;34.92;101191.20;2188628;80;27727;-62
2022/08/10 13:45:42;;;;;;;2.35;2.15;;;;;;;26.16;34.42;101198.16;2186910;80;29883;-64
2022/08/10 13:48:44;;;;;;;3.02;2.05;;;;;;;26.03;34.46;101194.41;2156156;81;30935;-62
2022/08/10 13:51:46;;;;;;;4.87;2.08;;;;;;;25.90;34.43;101192.04;2148206;80;33415;-63
2022/08/10 13:54:49;;;;;;;2.92;2.47;;;;;;;25.83;34.73;101196.94;2133217;82;29410;-63
2022/08/10 13:57:56;;;;;;;2.58;1.80;;;;;;;25.77;34.87;101193.78;2115026;82;27820;-62
2022/08/10 14:01:01;;;;;;;4.55;1.92;;;;;;;25.82;35.25;101193.30;2105276;82;29563;-61
2022/08/10 14:04:04;;;;;;;1.90;1.80;;;;;;;25.89;35.06;101183.45;2080375;82;30836;-63
2022/08/10 14:07:06;;;;;;;3.85;1.95;;;;;;;25.97;34.38;101179.92;2109386;82;32910;-63
2022/08/10 14:10:11;;;;;;;2.30;2.10;;;;;;;26.05;34.35;101179.14;2116291;84;29447;-65
2022/08/10 14:13:14;;;;;;;3.42;2.20;;;;;;;26.12;34.51;101178.91;2114664;82;27844;-63
2022/08/10 14:16:17;;;;;;;2.50;1.98;;;;;;;26.17;34.60;101177.06;2108203;82;29921;-64
2022/08/10 14:19:29;;;;;;;5.17;2.98;;;;;;;26.11;34.45;101173.06;2084329;83;32265;-64
2022/08/10 14:22:34;;;;;;;4.87;3.73;;;;;;;26.06;34.22;101177.59;2096271;83;28373;-64
2022/08/10 14:25:54;;;;;;;3.95;3.17;;;;;;;26.02;34.64;101171.20;2118137;82;29072;-64
2022/08/10 14:29:08;;;;;;;4.17;3.52;;;;;;;26.04;34.97;101169.17;2103012;82;27707;-68
2022/08/10 14:32:12;;;;;;;5.33;3.20;;;;;;;26.06;34.87;101173.48;2084379;82;28715;-62
2022/08/10 14:35:16;;;;;;;3.00;2.20;;;;;;;26.03;34.53;101171.07;2114289;82;31053;-63
2022/08/10 14:38:20;;;;;;;2.58;2.33;;;;;;;26.03;34.89;101171.56;2145302;81;33653;-63
2022/08/10 14:41:28;;;;;;;2.33;1.67;;;;;;;26.02;34.76;101167.09;2131409;81;29442;-67
2022/08/10 14:44:30;;;;;;;2.25;1.75;;;;;;;26.01;34.72;101168.98;2147665;81;27719;-63